Time;durP1;ratioP1;P1;durP2;ratioP2;P2;SDS_P1;SDS_P2;PMS_P1;PMS_P2;Temp;Humidity;BMP_temperature;BMP_pressure;BME280_temperature;BME280_humidity;BME280_pressure;Samples;Min_cycle;Max_cycle;Signal;HPM_P1;HPM_P2
2024/04/21 00:00:56;;;;;;;10.23;1.70;;;6.20;1.00;;;;;;5181088;27;38613;-81
2024/04/21 00:03:23;;;;;;;15.77;2.60;;;6.20;1.00;;;;;;5179891;27;35911;-81
2024/04/21 00:05:49;;;;;;;12.53;1.87;;;6.20;1.00;;;;;;5186790;27;37192;-82
2024/04/21 00:08:15;;;;;;;7.67;1.43;;;6.20;1.00;;;;;;5178492;27;37961;-80
2024/04/21 00:10:42;;;;;;;12.17;2.00;;;6.20;1.00;;;;;;5183508;27;39506;-80
2024/04/21 00:13:08;;;;;;;14.63;1.67;;;6.20;1.00;;;;;;5179204;27;37119;-81
2024/04/21 00:15:34;;;;;;;13.40;2.00;;;6.10;1.00;;;;;;5169595;27;39604;-80
2024/04/21 00:18:00;;;;;;;17.37;2.70;;;6.10;1.00;;;;;;5180670;27;37418;-81
2024/04/21 00:20:27;;;;;;;10.37;1.90;;;6.20;1.00;;;;;;5184839;27;38130;-81
2024/04/21 00:22:53;;;;;;;16.17;1.80;;;6.20;1.00;;;;;;5185108;27;38511;-81
2024/04/21 00:25:19;;;;;;;11.90;1.93;;;6.20;1.00;;;;;;5183291;27;39378;-81
2024/04/21 00:27:46;;;;;;;18.70;1.77;;;6.20;1.00;;;;;;5181468;27;37186;-80
2024/04/21 00:30:12;;;;;;;12.13;1.30;;;6.10;1.00;;;;;;5180486;27;38651;-81
2024/04/21 00:32:39;;;;;;;15.20;2.10;;;6.10;1.00;;;;;;5184939;27;37564;-81
2024/04/21 00:35:06;;;;;;;13.17;2.10;;;6.10;1.00;;;;;;5183700;27;37952;-81
2024/04/21 00:37:32;;;;;;;11.07;1.63;;;6.20;1.00;;;;;;5185497;27;38549;-80
2024/04/21 00:39:58;;;;;;;12.77;2.00;;;6.20;1.00;;;;;;5181702;27;38194;-81
2024/04/21 00:42:24;;;;;;;6.77;1.37;;;6.30;1.00;;;;;;5184000;27;38102;-81
2024/04/21 00:44:50;;;;;;;8.23;1.67;;;6.30;1.00;;;;;;5177940;27;40413;-81
2024/04/21 00:47:16;;;;;;;14.10;1.80;;;6.30;1.00;;;;;;5190749;27;38651;-81
2024/04/21 00:49:43;;;;;;;12.23;1.60;;;6.30;1.00;;;;;;5181294;27;38600;-81
2024/04/21 00:52:10;;;;;;;12.17;1.70;;;6.40;1.00;;;;;;5185419;27;35750;-81
2024/04/21 00:54:38;;;;;;;18.53;2.53;;;6.40;1.00;;;;;;5181401;27;38700;-80
2024/04/21 00:57:04;;;;;;;11.03;2.10;;;6.30;1.00;;;;;;5197267;27;38534;-81
2024/04/21 00:59:33;;;;;;;15.40;2.20;;;6.20;1.00;;;;;;5180972;27;37719;-80
2024/04/21 01:02:00;;;;;;;12.77;2.00;;;5.80;1.00;;;;;;5775222;22;37753;-81
2024/04/21 01:04:32;;;;;;;9.40;2.23;;;5.60;1.00;;;;;;5186237;27;38238;-81
2024/04/21 01:06:58;;;;;;;11.52;1.90;;;5.50;1.00;;;;;;5175823;27;38436;-82
2024/04/21 01:09:27;;;;;;;14.87;2.23;;;5.30;1.00;;;;;;5173043;27;38070;-81
2024/04/21 01:11:59;;;;;;;9.80;1.83;;;5.20;1.00;;;;;;5185712;27;36669;-81
2024/04/21 01:14:29;;;;;;;12.87;2.03;;;5.20;1.00;;;;;;5195725;27;50287;-81
2024/04/21 01:16:55;;;;;;;17.63;2.13;;;5.20;1.00;;;;;;5175127;27;38933;-81
2024/04/21 01:19:22;;;;;;;18.73;2.37;;;5.20;1.00;;;;;;5201717;27;38640;-80
2024/04/21 01:21:53;;;;;;;11.10;1.93;;;5.20;1.00;;;;;;5173765;27;38466;-81
2024/04/21 01:24:27;;;;;;;15.63;2.80;;;5.20;1.00;;;;;;5168158;27;40520;-81
2024/04/21 01:26:55;;;;;;;13.20;2.07;;;5.30;1.00;;;;;;5172409;27;38957;-81
2024/04/21 01:29:28;;;;;;;21.07;3.87;;;5.20;1.00;;;;;;5190086;27;39706;-81
2024/04/21 01:31:55;;;;;;;16.43;2.37;;;5.30;1.00;;;;;;5221324;27;37611;-82
2024/04/21 01:34:26;;;;;;;10.50;2.00;;;5.30;1.00;;;;;;5178372;27;40050;-80
2024/04/21 01:36:54;;;;;;;11.77;2.07;;;5.40;1.00;;;;;;5154197;27;37204;-81
2024/04/21 01:39:28;;;;;;;12.10;2.30;;;5.50;1.00;;;;;;5165360;27;40892;-81
2024/04/21 01:41:58;;;;;;;20.10;2.53;;;5.60;1.00;;;;;;5173108;27;37723;-80
2024/04/21 01:44:37;;;;;;;15.77;1.90;;;5.60;1.00;;;;;;5151421;27;49583;-81
2024/04/21 01:47:06;;;;;;;11.87;1.63;;;5.60;1.00;;;;;;5182574;27;39493;-82
2024/04/21 01:49:54;;;;;;;15.33;2.00;;;5.60;1.00;;;;;;5183540;27;38869;-81
2024/04/21 01:52:22;;;;;;;15.23;2.10;;;5.50;1.00;;;;;;5086473;27;36571;-82
2024/04/21 01:54:54;;;;;;;16.93;2.03;;;5.40;1.00;;;;;;5154111;27;38111;-81
2024/04/21 01:57:34;;;;;;;10.33;1.60;;;5.40;1.00;;;;;;5154497;27;38487;-82
2024/04/21 02:00:04;;;;;;;13.63;1.80;;;5.30;1.00;;;;;;5197827;27;37889;-82
2024/04/21 02:02:33;;;;;;;20.20;2.60;;;5.40;1.00;;;;;;5179751;27;38478;-81
2024/04/21 02:05:03;;;;;;;14.25;1.50;;;5.40;1.00;;;;;;5162717;27;40199;-81
2024/04/21 02:07:43;;;;;;;17.20;2.13;;;5.40;1.00;;;;;;5157569;27;38231;-81
2024/04/21 02:10:27;;;;;;;18.93;2.40;;;5.50;1.00;;;;;;5200672;27;37853;-81
2024/04/21 02:13:02;;;;;;;20.63;2.53;;;5.50;1.00;;;;;;5183894;27;38551;-83
2024/04/21 02:15:30;;;;;;;13.10;2.03;;;5.70;1.00;;;;;;5160038;27;49664;-80
2024/04/21 02:18:08;;;;;;;14.30;2.20;;;5.70;1.00;;;;;;5155812;27;40068;-82
2024/04/21 02:20:36;;;;;;;15.33;1.77;;;5.60;1.00;;;;;;5181329;27;49949;-80
2024/04/21 02:23:05;;;;;;;8.10;1.73;;;5.50;1.00;;;;;;5174540;27;37177;-81
2024/04/21 02:25:37;;;;;;;9.10;1.73;;;5.30;1.00;;;;;;5176037;27;41373;-82
2024/04/21 02:28:15;;;;;;;9.30;1.65;;;5.20;1.00;;;;;;5185080;27;37689;-81
2024/04/21 02:30:44;;;;;;;6.67;1.10;;;5.10;1.00;;;;;;5142538;27;39775;-81
2024/04/21 02:33:17;;;;;;;9.60;1.60;;;5.10;1.00;;;;;;5151710;27;37661;-82
2024/04/21 02:35:50;;;;;;;9.97;1.47;;;5.10;1.00;;;;;;5227619;27;39348;-81
2024/04/21 02:38:35;;;;;;;11.57;1.70;;;5.10;1.00;;;;;;5217597;27;39586;-81
2024/04/21 02:41:02;;;;;;;15.80;2.17;;;5.10;1.00;;;;;;5198028;27;37995;-82
2024/04/21 02:43:32;;;;;;;10.10;1.70;;;5.10;1.00;;;;;;5158068;27;50368;-81
2024/04/21 02:46:01;;;;;;;18.27;1.80;;;5.20;1.00;;;;;;5216587;27;39510;-80
2024/04/21 02:48:32;;;;;;;17.67;2.83;;;5.20;1.00;;;;;;5216709;27;50089;-81
2024/04/21 02:51:00;;;;;;;16.20;2.00;;;5.30;1.00;;;;;;5209605;27;38252;-82
2024/04/21 02:53:27;;;;;;;8.03;1.50;;;5.30;1.00;;;;;;5214205;27;37930;-81
2024/04/21 02:56:07;;;;;;;19.87;2.13;;;5.30;1.00;;;;;;5179837;27;38971;-81
2024/04/21 02:58:41;;;;;;;13.37;1.73;;;5.30;1.00;;;;;;5215215;27;50464;-82
2024/04/21 03:01:16;;;;;;;13.93;1.70;;;5.30;1.00;;;;;;5197417;27;38527;-80
2024/04/21 03:03:49;;;;;;;12.03;1.77;;;5.30;1.00;;;;;;5229740;27;37385;-81
2024/04/21 03:06:24;;;;;;;18.83;2.33;;;5.30;1.00;;;;;;5167833;27;39382;-81
2024/04/21 03:08:54;;;;;;;12.07;2.90;;;5.40;1.00;;;;;;5240667;27;39653;-82
2024/04/21 03:11:27;;;;;;;16.93;2.50;;;5.50;1.00;;;;;;5196941;27;38529;-81
2024/04/21 03:13:58;;;;;;;13.97;2.40;;;5.60;1.00;;;;;;5228025;27;37696;-80
2024/04/21 03:16:33;;;;;;;15.33;2.33;;;5.60;1.00;;;;;;5172875;27;38995;-83
2024/04/21 03:19:06;;;;;;;15.30;2.47;;;5.70;1.00;;;;;;5224725;27;38660;-82
2024/04/21 03:21:33;;;;;;;11.90;2.23;;;5.80;1.00;;;;;;5178867;27;50414;-82
2024/04/21 03:24:09;;;;;;;18.27;2.77;;;5.90;1.00;;;;;;5218166;27;38602;-82
2024/04/21 03:26:48;;;;;;;11.07;2.27;;;5.90;1.00;;;;;;5160968;27;50048;-82
2024/04/21 03:29:15;;;;;;;19.87;3.13;;;6.00;1.00;;;;;;5207494;27;39516;-81
2024/04/21 03:31:57;;;;;;;16.57;2.47;;;6.10;1.00;;;;;;5228176;27;39625;-81
2024/04/21 03:34:33;;;;;;;20.53;2.60;;;6.20;1.00;;;;;;5180956;27;37411;-82
2024/04/21 03:37:00;;;;;;;17.47;3.13;;;6.30;1.00;;;;;;5212082;27;39168;-81
2024/04/21 03:39:27;;;;;;;17.37;2.40;;;6.40;1.00;;;;;;5242053;22;39761;-80
2024/04/21 03:41:56;;;;;;;14.70;2.27;;;6.50;1.00;;;;;;5200192;27;34415;-81
2024/04/21 03:44:23;;;;;;;18.03;2.40;;;6.60;1.00;;;;;;5216468;27;37859;-81
2024/04/21 03:46:49;;;;;;;18.90;2.90;;;6.60;1.00;;;;;;5196024;27;37685;-81
2024/04/21 03:49:15;;;;;;;19.00;2.73;;;6.70;1.00;;;;;;5204510;27;36763;-80
2024/04/21 03:51:41;;;;;;;7.47;1.20;;;6.70;1.00;;;;;;5197496;27;36965;-81
2024/04/21 03:54:07;;;;;;;8.13;1.40;;;6.10;1.00;;;;;;5226900;27;37449;-80
2024/04/21 03:56:35;;;;;;;4.73;1.43;;;5.50;1.00;;;;;;5192391;27;39134;-81
2024/04/21 03:59:01;;;;;;;3.07;0.70;;;4.90;12.60;;;;;;5205058;27;37917;-81
2024/04/21 04:01:27;;;;;;;5.10;0.87;;;4.50;37.60;;;;;;5203390;27;48492;-79
2024/04/21 04:03:53;;;;;;;4.47;0.80;;;4.40;57.40;;;;;;5191359;27;36141;-81
2024/04/21 04:06:20;;;;;;;5.03;0.77;;;4.20;78.20;;;;;;5230941;27;40408;-80
2024/04/21 04:08:46;;;;;;;4.77;1.27;;;4.20;90.60;;;;;;5208613;27;36873;-80
2024/04/21 04:11:13;;;;;;;5.40;0.90;;;4.20;96.70;;;;;;5193535;27;37913;-81
2024/04/21 04:13:39;;;;;;;5.50;0.80;;;4.20;99.90;;;;;;5226067;27;38684;-81
2024/04/21 04:16:05;;;;;;;10.17;1.20;;;4.00;99.90;;;;;;5216859;27;39212;-80
2024/04/21 04:18:31;;;;;;;11.73;1.83;;;4.00;99.90;;;;;;5206605;27;38191;-81
2024/04/21 04:21:07;;;;;;;9.13;1.73;;;4.00;99.90;;;;;;5195886;27;36846;-81
2024/04/21 04:23:35;;;;;;;6.07;1.27;;;3.90;99.90;;;;;;5210541;27;48464;-80
2024/04/21 04:26:17;;;;;;;7.37;1.50;;;3.90;99.90;;;;;;5206272;27;38541;-81
2024/04/21 04:28:46;;;;;;;11.10;1.70;;;3.90;99.90;;;;;;5231749;27;50590;-82
2024/04/21 04:31:12;;;;;;;11.47;1.57;;;3.80;99.90;;;;;;5194007;27;37947;-81
2024/04/21 04:33:42;;;;;;;13.07;2.43;;;3.80;99.90;;;;;;5211068;27;36975;-81
2024/04/21 04:36:35;;;;;;;11.17;1.70;;;3.90;99.90;;;;;;5494737;22;40347;-82
2024/04/21 04:39:04;;;;;;;;;;;3.80;99.90;;;;;;5224578;27;38930;-82
2024/04/21 04:41:33;;;;;;;13.40;1.83;;;3.70;99.90;;;;;;5216160;27;38937;-82
2024/04/21 04:44:06;;;;;;;12.77;1.73;;;3.70;99.90;;;;;;5257641;27;37835;-82
2024/04/21 04:46:34;;;;;;;9.00;1.80;;;3.60;99.90;;;;;;5219889;27;39535;-83
2024/04/21 04:49:03;;;;;;;8.37;1.50;;;3.60;99.90;;;;;;5174974;27;38249;-80
2024/04/21 04:51:53;;;;;;;16.00;1.90;;;3.50;99.90;;;;;;5159620;27;50415;-84
2024/04/21 04:54:20;;;;;;;11.70;1.80;;;3.50;99.90;;;;;;5197608;27;38852;-82
2024/04/21 04:56:46;;;;;;;15.00;2.13;;;3.50;99.90;;;;;;5198762;27;40236;-81
2024/04/21 04:59:18;;;;;;;13.03;1.93;;;3.50;99.90;;;;;;5179750;27;39276;-82
2024/04/21 05:01:47;;;;;;;14.40;1.80;;;3.50;99.90;;;;;;5169101;27;38911;-82
2024/04/21 05:04:14;;;;;;;9.73;1.60;;;3.40;99.90;;;;;;5131279;27;38857;-82
2024/04/21 05:06:40;;;;;;;12.23;2.10;;;3.40;99.90;;;;;;5155541;22;40189;-79
2024/04/21 05:09:07;;;;;;;19.47;2.80;;;3.40;99.90;;;;;;5231539;27;38677;-78
2024/04/21 05:11:33;;;;;;;11.27;2.10;;;3.40;99.90;;;;;;5237874;27;38403;-78
2024/04/21 05:13:59;;;;;;;12.70;2.00;;;3.50;99.90;;;;;;5207954;27;38649;-79
2024/04/21 05:16:26;;;;;;;13.57;2.20;;;3.50;99.90;;;;;;5235144;27;38779;-78
2024/04/21 05:18:52;;;;;;;17.83;2.20;;;3.60;99.90;;;;;;5204652;27;38456;-78
2024/04/21 05:21:18;;;;;;;9.20;1.87;;;3.60;99.90;;;;;;5198956;27;36719;-78
2024/04/21 05:23:44;;;;;;;20.40;3.20;;;3.60;99.90;;;;;;5246011;27;37178;-78
2024/04/21 05:26:10;;;;;;;16.23;2.40;;;3.70;99.90;;;;;;5242928;27;39745;-79
2024/04/21 05:28:37;;;;;;;13.80;2.20;;;3.70;99.90;;;;;;5244126;27;38288;-78
2024/04/21 05:31:03;;;;;;;15.13;2.37;;;3.80;99.90;;;;;;5212042;27;37119;-78
2024/04/21 05:33:29;;;;;;;15.93;2.00;;;3.80;99.90;;;;;;5207240;27;37351;-77
2024/04/21 05:35:55;;;;;;;12.67;2.30;;;3.90;99.90;;;;;;5199827;27;40021;-79
2024/04/21 05:38:22;;;;;;;14.90;2.90;;;3.90;99.90;;;;;;5230762;27;38692;-79
2024/04/21 05:40:48;;;;;;;10.10;1.97;;;4.00;99.90;;;;;;5228606;27;39671;-78
2024/04/21 05:43:15;;;;;;;12.73;2.57;;;4.10;99.90;;;;;;5232270;27;37661;-79
2024/04/21 05:45:41;;;;;;;12.73;2.50;;;4.10;99.90;;;;;;5242859;27;38672;-79
2024/04/21 05:48:07;;;;;;;14.27;2.10;;;4.20;99.90;;;;;;5240273;27;37892;-78
2024/04/21 05:50:33;;;;;;;17.77;2.53;;;4.20;99.90;;;;;;5221992;27;37904;-79
2024/04/21 05:52:59;;;;;;;18.17;2.97;;;4.30;99.90;;;;;;5196994;27;38317;-79
2024/04/21 05:55:25;;;;;;;13.63;2.20;;;4.40;99.90;;;;;;5210680;27;38893;-79
2024/04/21 05:57:52;;;;;;;14.23;2.30;;;4.40;99.90;;;;;;5208101;27;38559;-79
2024/04/21 06:00:18;;;;;;;17.10;2.53;;;4.50;99.90;;;;;;5208449;27;38671;-79
2024/04/21 06:02:44;;;;;;;12.47;2.33;;;4.50;99.90;;;;;;5229945;27;38146;-79
2024/04/21 06:05:10;;;;;;;16.00;2.17;;;4.60;99.90;;;;;;5208710;27;39546;-79
2024/04/21 06:07:36;;;;;;;14.47;1.93;;;4.60;99.90;;;;;;5240716;27;38424;-79
2024/04/21 06:10:03;;;;;;;10.70;1.87;;;4.60;99.90;;;;;;5208271;27;38454;-79
2024/04/21 06:12:29;;;;;;;14.20;1.93;;;4.70;99.90;;;;;;5236649;27;36808;-79
2024/04/21 06:14:55;;;;;;;12.53;2.07;;;4.70;99.90;;;;;;5243747;27;38935;-79
2024/04/21 06:17:21;;;;;;;16.57;2.07;;;4.70;99.90;;;;;;5229547;27;38013;-79
2024/04/21 06:19:47;;;;;;;10.40;1.77;;;4.70;91.40;;;;;;5236817;27;38642;-78
2024/04/21 06:22:14;;;;;;;10.57;1.90;;;4.80;83.40;;;;;;5209660;27;38417;-79
2024/04/21 06:24:40;;;;;;;19.57;2.50;;;4.80;71.30;;;;;;5207668;27;38551;-78
2024/04/21 06:27:06;;;;;;;8.93;1.80;;;4.80;64.10;;;;;;5204793;27;37299;-78
2024/04/21 06:29:32;;;;;;;10.67;2.60;;;4.90;57.00;;;;;;5239217;27;38453;-79
2024/04/21 06:31:58;;;;;;;10.60;2.00;;;4.90;47.60;;;;;;5208318;27;36157;-78
2024/04/21 06:34:25;;;;;;;7.67;1.67;;;5.00;49.70;;;;;;5243102;27;39107;-79
2024/04/21 06:36:51;;;;;;;11.63;1.87;;;5.10;46.60;;;;;;5251877;27;38407;-78
2024/04/21 06:39:17;;;;;;;9.97;1.50;;;5.10;47.40;;;;;;5247113;27;38855;-78
2024/04/21 06:41:43;;;;;;;10.10;1.93;;;5.20;49.20;;;;;;5218565;27;37573;-79
2024/04/21 06:44:09;;;;;;;19.57;2.37;;;5.30;35.00;;;;;;5218885;27;37560;-79
2024/04/21 06:46:35;;;;;;;6.23;1.63;;;5.30;36.70;;;;;;5212263;27;36637;-78
2024/04/21 06:49:01;;;;;;;7.67;1.87;;;5.30;33.80;;;;;;5207321;27;37075;-80
2024/04/21 06:51:28;;;;;;;10.77;1.50;;;5.30;25.10;;;;;;5239866;27;37564;-79
2024/04/21 06:53:54;;;;;;;15.87;1.70;;;5.30;25.20;;;;;;5207069;27;39808;-79
2024/04/21 06:56:20;;;;;;;9.47;1.20;;;5.50;44.90;;;;;;5236293;27;38175;-79
2024/04/21 06:58:47;;;;;;;5.97;1.80;;;5.70;45.70;;;;;;5210169;27;39310;-79
2024/04/21 07:01:13;;;;;;;11.50;1.63;;;5.70;30.50;;;;;;5244806;27;37445;-79
2024/04/21 07:03:39;;;;;;;8.93;1.20;;;5.80;13.30;;;;;;5213891;27;40483;-79
2024/04/21 07:06:06;;;;;;;8.23;1.40;;;5.90;24.00;;;;;;5210331;27;37214;-80
2024/04/21 07:08:32;;;;;;;7.47;1.73;;;6.00;14.60;;;;;;5207914;27;38927;-78
2024/04/21 07:10:58;;;;;;;5.17;1.00;;;6.10;10.90;;;;;;5240599;27;39660;-80
2024/04/21 07:13:25;;;;;;;6.07;0.80;;;6.00;13.50;;;;;;5235813;27;39900;-79
2024/04/21 07:15:51;;;;;;;3.80;0.40;;;6.00;14.70;;;;;;5237902;27;39433;-78
2024/04/21 07:18:17;;;;;;;1.07;0.50;;;6.20;1.90;;;;;;5205657;27;37058;-80
2024/04/21 07:20:44;;;;;;;1.80;0.47;;;6.00;1.00;;;;;;5208903;27;37955;-79
2024/04/21 07:23:10;;;;;;;2.10;0.40;;;5.90;1.00;;;;;;5243253;27;39054;-79
2024/04/21 07:25:36;;;;;;;0.83;0.30;;;6.00;3.80;;;;;;5211935;27;40066;-79
2024/04/21 07:28:02;;;;;;;2.87;0.50;;;6.20;16.40;;;;;;5204224;27;36889;-78
2024/04/21 07:30:28;;;;;;;0.93;0.40;;;6.30;1.00;;;;;;5241313;27;37540;-79
2024/04/21 07:32:54;;;;;;;0.47;0.40;;;6.30;1.00;;;;;;5210600;27;37914;-78
2024/04/21 07:35:21;;;;;;;1.97;0.50;;;6.40;1.00;;;;;;5210927;27;38018;-78
2024/04/21 07:37:47;;;;;;;2.87;0.73;;;6.20;1.00;;;;;;5208298;27;38445;-79
2024/04/21 07:40:14;;;;;;;2.83;0.90;;;6.20;1.00;;;;;;5213402;27;38476;-79
2024/04/21 07:42:40;;;;;;;2.67;0.60;;;6.20;1.00;;;;;;5210685;27;38170;-78
2024/04/21 07:45:06;;;;;;;4.67;0.67;;;6.10;1.00;;;;;;5231060;27;38998;-78
2024/04/21 07:47:32;;;;;;;1.27;0.50;;;6.30;1.00;;;;;;5203973;27;38894;-78
2024/04/21 07:49:59;;;;;;;0.60;0.47;;;6.50;1.00;;;;;;5238453;27;37571;-80
2024/04/21 07:52:25;;;;;;;2.20;0.50;;;6.80;1.00;;;;;;5209080;27;39444;-78
2024/04/21 07:54:51;;;;;;;2.80;0.60;;;7.10;1.00;;;;;;5209201;27;38872;-79
2024/04/21 07:57:17;;;;;;;2.33;0.70;;;7.40;1.00;;;;;;5231810;27;38068;-78
2024/04/21 07:59:43;;;;;;;5.13;0.70;;;7.70;1.00;;;;;;5242879;27;38628;-79
2024/04/21 08:02:09;;;;;;;3.07;0.63;;;7.80;1.00;;;;;;5236712;27;37013;-80
2024/04/21 08:04:35;;;;;;;1.83;0.60;;;7.80;1.00;;;;;;5204961;27;37060;-79
2024/04/21 08:07:03;;;;;;;2.70;0.60;;;7.90;1.00;;;;;;5240203;27;38698;-79
2024/04/21 08:09:29;;;;;;;7.30;0.90;;;7.70;1.00;;;;;;5214271;27;47817;-79
2024/04/21 08:11:58;;;;;;;3.87;0.80;;;7.30;1.00;;;;;;5227478;27;37728;-79
2024/04/21 08:14:24;;;;;;;4.60;1.10;;;6.90;1.00;;;;;;5244193;27;38049;-80
2024/04/21 08:16:50;;;;;;;4.63;1.17;;;6.90;1.00;;;;;;5203480;27;38099;-80
2024/04/21 08:19:16;;;;;;;6.17;0.80;;;6.70;1.00;;;;;;5208862;27;35896;-80
2024/04/21 08:21:46;;;;;;;8.23;1.10;;;7.10;1.00;;;;;;5209577;27;39380;-80
2024/04/21 08:24:12;;;;;;;4.43;1.33;;;7.40;1.00;;;;;;5230105;27;38805;-79
2024/04/21 08:26:38;;;;;;;2.80;1.13;;;7.70;1.00;;;;;;5214809;27;38804;-79
2024/04/21 08:29:04;;;;;;;7.27;1.17;;;8.00;1.00;;;;;;5213021;27;37389;-80
2024/04/21 08:31:34;;;;;;;5.80;1.20;;;8.10;1.00;;;;;;5213631;27;37553;-79
2024/04/21 08:34:00;;;;;;;4.53;0.90;;;8.10;1.00;;;;;;5217059;27;35236;-79
2024/04/21 08:36:26;;;;;;;6.10;1.40;;;8.40;1.00;;;;;;5245706;27;39466;-79
2024/04/21 08:38:53;;;;;;;3.57;1.17;;;8.40;1.00;;;;;;5215564;27;38131;-79
2024/04/21 08:41:21;;;;;;;4.57;1.00;;;8.40;99.90;;;;;;5245519;27;38403;-79
2024/04/21 08:43:53;;;;;;;3.57;1.07;;;8.70;1.00;;;;;;5232008;27;38112;-79
2024/04/21 08:46:20;;;;;;;6.68;1.23;;;9.10;1.00;;;;;;5236473;27;36838;-80
2024/04/21 08:48:48;;;;;;;5.33;1.03;;;9.20;99.90;;;;;;5233260;27;37763;-79
2024/04/21 08:51:15;;;;;;;3.23;1.20;;;9.30;1.00;;;;;;5201973;27;39475;-79
2024/04/21 08:53:41;;;;;;;6.00;1.23;;;9.40;85.00;;;;;;5251190;27;38733;-79
2024/04/21 08:56:21;;;;;;;11.93;1.70;;;9.20;1.00;;;;;;5215963;27;39739;-80
2024/04/21 08:58:49;;;;;;;8.47;1.23;;;9.00;1.00;;;;;;5245484;27;38347;-79
2024/04/21 09:01:19;;;;;;;4.67;0.97;;;9.00;1.00;;;;;;5196875;27;39584;-78
2024/04/21 09:03:49;;;;;;;5.27;1.20;;;9.50;99.90;;;;;;5210716;27;37966;-80
2024/04/21 09:06:16;;;;;;;5.83;1.47;;;9.80;99.90;;;;;;5238551;27;38292;-79
2024/04/21 09:08:43;;;;;;;4.70;1.20;;;10.00;1.00;;;;;;5223474;27;36847;-79
2024/04/21 09:11:09;;;;;;;10.27;1.37;;;10.00;1.00;;;;;;5226250;27;39630;-79
2024/04/21 09:13:35;;;;;;;7.30;1.70;;;10.10;1.00;;;;;;5210880;27;37803;-79
2024/04/21 09:16:03;;;;;;;8.10;1.10;;;10.10;1.00;;;;;;5240231;27;38402;-79
2024/04/21 09:18:29;;;;;;;4.57;0.87;;;10.10;99.90;;;;;;5242459;27;37229;-79
2024/04/21 09:20:55;;;;;;;5.57;1.02;;;10.30;1.00;;;;;;5248306;27;38830;-79
2024/04/21 09:23:22;;;;;;;4.68;1.10;;;10.50;1.00;;;;;;5216092;27;37144;-79
2024/04/21 09:25:48;;;;;;;5.88;1.42;;;10.50;1.00;;;;;;5216622;27;36750;-79
2024/04/21 09:28:14;;;;;;;7.93;1.35;;;10.50;1.00;;;;;;5215258;27;37578;-79
2024/04/21 09:30:41;;;;;;;5.57;1.17;;;10.60;99.90;;;;;;5237712;27;38586;-79
2024/04/21 09:33:08;;;;;;;7.90;1.38;;;10.80;1.00;;;;;;5258055;27;40096;-79
2024/04/21 09:35:38;;;;;;;7.75;1.85;;;11.10;1.00;;;;;;5246961;27;38843;-79
2024/04/21 09:38:04;;;;;;;9.88;1.40;;;11.50;99.90;;;;;;5258427;27;37482;-78
2024/04/21 09:40:31;;;;;;;6.70;1.40;;;11.10;47.50;;;;;;5226789;27;37934;-79
2024/04/21 09:42:59;;;;;;;6.90;1.15;;;10.20;1.00;;;;;;5205961;27;37421;-78
2024/04/21 09:45:28;;;;;;;10.30;1.25;;;9.80;3.50;;;;;;5205572;27;38637;-78
2024/04/21 09:47:55;;;;;;;7.23;1.10;;;10.10;1.00;;;;;;5213843;27;37307;-78
2024/04/21 09:50:23;;;;;;;7.28;1.30;;;10.00;99.90;;;;;;5214508;27;39541;-78
2024/04/21 09:52:53;;;;;;;7.63;1.33;;;10.40;1.00;;;;;;5203055;27;38748;-79
2024/04/21 09:55:23;;;;;;;8.35;1.20;;;10.50;99.90;;;;;;5242518;27;39000;-80
2024/04/21 09:58:00;;;;;;;7.18;1.02;;;10.60;99.90;;;;;;5202834;27;36357;-78
2024/04/21 10:00:30;;;;;;;8.48;1.65;;;10.70;99.90;;;;;;5237541;27;39261;-79
2024/04/21 10:03:01;;;;;;;8.43;1.50;;;11.10;1.00;;;;;;5229997;27;37195;-79
2024/04/21 10:05:28;;;;;;;4.18;1.10;;;11.20;1.00;;;;;;5201568;27;47346;-79
2024/04/21 10:07:58;;;;;;;4.65;1.17;;;11.60;99.90;;;;;;5206190;27;36730;-79
2024/04/21 10:10:28;;;;;;;4.25;1.00;;;12.10;99.90;;;;;;5237711;27;38265;-79
2024/04/21 10:12:55;;;;;;;4.05;0.82;;;12.10;99.90;;;;;;5205140;27;37815;-80
2024/04/21 10:15:22;;;;;;;6.10;0.90;;;12.20;36.70;;;;;;5229042;27;38349;-80
2024/04/21 10:18:01;;;;;;;4.43;0.95;;;12.40;1.00;;;;;;5213360;27;36754;-80
2024/04/21 10:20:37;;;;;;;3.47;1.23;;;12.60;16.10;;;;;;5227937;27;49533;-80
2024/04/21 10:23:09;;;;;;;4.07;0.95;;;12.60;99.90;;;;;;5188640;27;38767;-79
2024/04/21 10:25:48;;;;;;;6.22;1.20;;;12.30;1.00;;;;;;5203427;27;36958;-79
2024/04/21 10:28:25;;;;;;;5.10;0.90;;;12.40;1.00;;;;;;5202367;27;35976;-79
2024/04/21 10:31:01;;;;;;;7.45;1.02;;;12.50;93.00;;;;;;5201820;27;40029;-80
2024/04/21 10:33:28;;;;;;;5.35;1.30;;;12.90;99.90;;;;;;5207692;27;47943;-80
2024/04/21 10:35:54;;;;;;;5.18;1.80;;;13.00;99.90;;;;;;5190755;27;39343;-81
2024/04/21 10:38:20;;;;;;;3.22;0.88;;;12.80;99.90;;;;;;5199642;27;37383;-79
2024/04/21 10:40:47;;;;;;;3.65;1.00;;;12.60;99.90;;;;;;5209638;27;39060;-78
2024/04/21 10:43:24;;;;;;;2.85;0.95;;;12.60;99.90;;;;;;5241722;27;38382;-79
2024/04/21 10:45:55;;;;;;;12.85;4.50;;;12.50;1.00;;;;;;5196346;27;38364;-80
2024/04/21 10:48:22;;;;;;;11.15;3.80;;;12.30;92.50;;;;;;5241469;27;36791;-80
2024/04/21 10:50:50;;;;;;;5.40;1.48;;;11.80;95.20;;;;;;5212396;27;38968;-80
2024/04/21 10:53:16;;;;;;;5.65;2.10;;;11.50;99.90;;;;;;5241711;27;39223;-79
2024/04/21 10:55:46;;;;;;;5.30;1.77;;;11.50;99.90;;;;;;5201834;27;37986;-79
2024/04/21 10:58:12;;;;;;;5.38;1.13;;;11.40;99.90;;;;;;5248458;27;38547;-79
2024/04/21 11:00:39;;;;;;;3.25;1.08;;;11.60;99.90;;;;;;5210889;27;40250;-80
2024/04/21 11:03:05;;;;;;;5.40;1.15;;;11.60;99.90;;;;;;5245280;27;38246;-79
2024/04/21 11:05:50;;;;;;;2.25;0.85;;;12.00;1.00;;;;;;5214305;27;37193;-79
2024/04/21 11:08:20;;;;;;;5.63;1.90;;;12.10;83.10;;;;;;5215650;27;35809;-78
2024/04/21 11:10:50;;;;;;;3.20;1.27;;;12.10;99.90;;;;;;5249235;27;40145;-79
2024/04/21 11:13:18;;;;;;;4.60;1.50;;;12.00;99.90;;;;;;5213220;27;39487;-78
2024/04/21 11:15:44;;;;;;;4.10;1.15;;;12.20;99.90;;;;;;5205165;27;37067;-80
2024/04/21 11:18:11;;;;;;;3.47;1.15;;;12.50;1.00;;;;;;5224264;27;36516;-80
2024/04/21 11:20:38;;;;;;;2.85;1.00;;;12.70;1.00;;;;;;5225579;27;37603;-80
2024/04/21 11:23:04;;;;;;;4.53;1.40;;;13.20;74.70;;;;;;5210284;27;37921;-80
2024/04/21 11:25:30;;;;;;;4.55;1.60;;;13.30;30.60;;;;;;5209587;27;36786;-79
2024/04/21 11:27:56;;;;;;;3.92;1.23;;;13.00;1.00;;;;;;5224279;27;36395;-80
2024/04/21 11:30:24;;;;;;;5.05;1.08;;;12.70;1.00;;;;;;5225605;27;37344;-79
2024/04/21 11:32:51;;;;;;;3.45;1.80;;;12.40;1.00;;;;;;5256223;27;38937;-80
2024/04/21 11:35:20;;;;;;;3.50;1.10;;;12.10;99.90;;;;;;5217531;27;37284;-80
2024/04/21 11:37:49;;;;;;;6.38;1.13;;;12.20;1.00;;;;;;5217903;27;36001;-80
2024/04/21 11:40:15;;;;;;;3.33;0.90;;;12.70;1.00;;;;;;5215721;27;39689;-80
2024/04/21 11:42:47;;;;;;;5.75;1.30;;;12.90;99.90;;;;;;5223266;27;37488;-80
2024/04/21 11:45:34;;;;;;;3.47;1.20;;;12.60;99.90;;;;;;5224151;27;36727;-79
2024/04/21 11:48:00;;;;;;;5.03;1.10;;;12.80;1.00;;;;;;5226311;27;38055;-80
2024/04/21 11:50:27;;;;;;;3.15;1.50;;;12.90;1.00;;;;;;5249990;27;38972;-80
2024/04/21 11:52:54;;;;;;;2.42;0.85;;;12.60;99.90;;;;;;5258688;27;42179;-80
2024/04/21 11:55:22;;;;;;;4.03;1.40;;;12.10;99.90;;;;;;5222737;27;20022;-80
2024/04/21 11:57:48;;;;;;;3.65;1.10;;;12.10;1.00;;;;;;5240120;27;38425;-79
2024/04/21 12:00:14;;;;;;;5.88;1.48;;;12.30;99.90;;;;;;5206435;27;37410;-80
2024/04/21 12:02:41;;;;;;;3.05;1.02;;;12.20;99.90;;;;;;5219580;27;39104;-80
2024/04/21 12:05:13;;;;;;;2.97;1.05;;;12.40;1.00;;;;;;5221227;27;38691;-79
2024/04/21 12:07:39;;;;;;;3.75;1.17;;;12.70;99.90;;;;;;5227850;27;36635;-79
2024/04/21 12:10:06;;;;;;;6.13;1.17;;;12.80;99.90;;;;;;5252046;27;40155;-80
2024/04/21 12:12:32;;;;;;;2.45;0.75;;;13.30;99.90;;;;;;5228151;27;38910;-80
2024/04/21 12:15:04;;;;;;;3.25;1.10;;;13.50;1.00;;;;;;5228826;27;39634;-79
2024/04/21 12:17:32;;;;;;;3.10;1.00;;;13.40;1.00;;;;;;5198475;27;48660;-80
2024/04/21 12:19:59;;;;;;;4.40;1.25;;;13.70;1.00;;;;;;5220260;27;37631;-80
2024/04/21 12:22:25;;;;;;;3.47;1.17;;;13.80;1.00;;;;;;5235867;27;37282;-80
2024/04/21 12:24:53;;;;;;;4.78;1.08;;;13.10;1.00;;;;;;5239397;27;36945;-81
2024/04/21 12:27:22;;;;;;;5.72;1.10;;;12.60;99.90;;;;;;5229462;27;35811;-80
2024/04/21 12:29:48;;;;;;;4.47;0.98;;;12.70;99.90;;;;;;5267201;27;39264;-79
2024/04/21 12:32:16;;;;;;;4.05;0.90;;;13.00;99.90;;;;;;5265975;27;39271;-80
2024/04/21 12:34:42;;;;;;;4.78;1.20;;;13.50;15.10;;;;;;5236007;27;37340;-80
2024/04/21 12:37:08;;;;;;;4.03;1.20;;;13.80;1.00;;;;;;5208067;27;36079;-81
2024/04/21 12:39:37;;;;;;;1.67;0.68;;;13.90;1.00;;;;;;5226920;27;37608;-79
2024/04/21 12:42:04;;;;;;;5.55;1.50;;;14.00;1.00;;;;;;5234510;27;39897;-80
2024/04/21 12:44:30;;;;;;;3.55;1.23;;;13.40;1.00;;;;;;5267041;27;38564;-81
2024/04/21 12:46:56;;;;;;;3.90;1.00;;;13.20;1.00;;;;;;5218814;27;37325;-81
2024/04/21 12:49:23;;;;;;;3.78;0.98;;;13.60;1.00;;;;;;5236320;27;38999;-80
2024/04/21 12:51:51;;;;;;;1.98;0.90;;;13.50;1.00;;;;;;5216718;27;38103;-82
2024/04/21 12:54:24;;;;;;;3.78;1.00;;;13.80;1.00;;;;;;5240103;27;36756;-81
2024/04/21 12:56:51;;;;;;;2.25;0.95;;;13.90;1.00;;;;;;5217187;27;37856;-82
2024/04/21 12:59:17;;;;;;;1.92;0.80;;;14.20;1.00;;;;;;5261723;27;41179;-81
2024/04/21 13:01:43;;;;;;;3.78;0.70;;;14.20;1.00;;;;;;5236547;27;37931;-81